Página principal
METAR-TAF:

METAR-TAF

Aeroportos :

Nouakchott, Mauritânia

Aeroporto Internacional Nouakchott-Oumtounsy

latitude: 18-18-36N, longitude: 015-58-11W, altura: 3 m

Observação actual do tempo

O boletim foi feito há 32 minutos, às 19:30 UTC
Vento 14 kt de nor-noroeste
Temperatura 20°C
Humidade 73%
Pressão 1013 hPa
Visibilidade 10 km ou mais
sem nuvens abaixo de 1500 metros e sem cumulonimbus

METAR: GQNO 121930Z 33014KT CAVOK 20/15 Q1013 NOSIG

Hora: 20:02 (20:02 UTC)

Previsão

O boletim foi feito há 3 horas e 2 minutos, às 17:00 UTC
Previsão válida de 12 às 18 UTC a 13 às 24 UTC
Vento 12 kt de nor-noroeste
Visibilidade: 8000 m
Temporariamente
de 13 às 09 UTC a 13 às 15 UTC
Vento 13 kt de nordeste

TAF: GQNO 121700Z 1218/1324 34012KT 8000 NSC TEMPO 1309/1315 05013KT

Observações e previsões do tempo de mais de 4000 aeroportos (mensagens METAR e TAF).

As estações disponíveis são os pontos amarelos e vermelhos sobre o mapa.

Mova o rato sobre o mapa para ver o nome da estação.

Depois clique no ponto para visualizar as observações e previsões meteorológicas.

Para alterar o mapa : clique nos botões verdes com uma cruz preta para aumentar o zoom; no botão verde com uma pitada de zoom; ou nas setas verdes para mapas adjacentes.


METAR-TAF: